KSNY/SNY METAR and TAF weather

Enter ICAO airport designator
Station Type Date Time Source
KSNY METAR 2021/09/25 01:53 UTC NOAA

KSNY 250153Z AUTO 12007KT 10SM CLR 12/03 A3019 RMK AO2 SLP202 T01170033


Station Type Date Time Source
KSNY Decoded METAR 2021/09/25 01:53 UTC NOAA

SIDNEY MUNICIPAL AIRPORT, NE, United States (KSNY) 41-06N 102-59W 1307M
Sep 24, 2021 - 09:53 PM EDT / 2021.09.25 0153 UTC
Wind: from the ESE (120 degrees) at 8 MPH (7 KT):0
Visibility: 10 mile(s):0
Sky conditions: clear
Temperature: 53.1 F (11.7 C)
Dew Point: 37.9 F (3.3 C)
Relative Humidity: 56%
Pressure (altimeter): 30.19 in. Hg (1022 hPa)
ob: KSNY 250153Z AUTO 12007KT 10SM CLR 12/03 A3019 RMK AO2 SLP202 T01170033
cycle: 2

Station Type Date Time Source
KSNY TAF 2021/09/24 18:24 UTC NOAA

TAF KSNY 241720Z 2418/2518 01011KT P6SM SKC
FM250100 VRB06KT P6SM SCT070
FM250400 17006KT P6SM SKC

Example: see airport list